createdAt,value
2022-10-23T00:00:37.118Z,3.00
2022-10-23T00:03:04.268Z,2.80
2022-10-23T00:05:30.876Z,1.98
2022-10-23T00:07:58.960Z,1.80
2022-10-23T00:10:26.656Z,2.38
2022-10-23T00:12:54.018Z,1.90
2022-10-23T00:15:21.648Z,2.45
2022-10-23T00:17:48.404Z,2.17
2022-10-23T00:20:15.659Z,2.58
2022-10-23T00:22:42.225Z,2.10
2022-10-23T00:25:09.120Z,2.13
2022-10-23T00:27:35.621Z,1.98
2022-10-23T00:30:02.775Z,2.05
2022-10-23T00:32:29.354Z,1.80
2022-10-23T00:34:55.886Z,1.55
2022-10-23T00:37:22.947Z,1.75
2022-10-23T00:39:49.444Z,1.50
2022-10-23T00:42:19.939Z,1.63
2022-10-23T00:44:46.383Z,1.90
2022-10-23T00:47:13.967Z,1.63
2022-10-23T00:49:42.758Z,2.10
2022-10-23T00:52:12.047Z,2.10
2022-10-23T00:54:39.986Z,2.05
2022-10-23T00:57:08.014Z,1.98
2022-10-23T00:59:34.520Z,2.67
2022-10-23T01:02:01.076Z,3.08
2022-10-23T01:04:28.108Z,1.77
2022-10-23T01:06:57.531Z,1.90
2022-10-23T01:09:39.181Z,1.73
2022-10-23T01:12:08.407Z,1.83
2022-10-23T01:14:43.068Z,2.63
2022-10-23T01:17:17.548Z,1.90
2022-10-23T01:19:47.191Z,1.90
2022-10-23T01:24:52.067Z,1.83
2022-10-23T01:27:18.498Z,2.03
2022-10-23T01:30:06.074Z,1.80
2022-10-23T01:32:39.610Z,2.85
2022-10-23T01:35:15.523Z,2.60
2022-10-23T01:37:47.878Z,2.28
2022-10-23T01:40:20.507Z,1.80
2022-10-23T01:42:50.397Z,1.90
2022-10-23T01:45:23.694Z,2.05
2022-10-23T01:47:50.822Z,2.22
2022-10-23T01:50:18.941Z,3.22
2022-10-23T01:52:45.475Z,2.83
2022-10-23T01:55:12.497Z,1.67
2022-10-23T01:57:40.350Z,2.85
2022-10-23T02:00:12.134Z,3.05
2022-10-23T02:02:39.352Z,2.47
2022-10-23T02:05:17.326Z,2.08
2022-10-23T02:07:44.560Z,2.58
2022-10-23T02:10:12.360Z,2.47
2022-10-23T02:12:41.744Z,2.72
2022-10-23T02:15:14.351Z,2.60
2022-10-23T02:17:59.512Z,2.42
2022-10-23T02:20:46.420Z,2.47
2022-10-23T02:23:21.475Z,3.03
2022-10-23T02:25:54.049Z,2.80
2022-10-23T02:28:23.728Z,2.15
2022-10-23T02:30:50.683Z,2.22
2022-10-23T02:33:17.564Z,2.03
2022-10-23T02:35:44.641Z,2.45
2022-10-23T02:38:28.796Z,2.10
2022-10-23T02:40:56.464Z,2.00
2022-10-23T02:43:27.173Z,2.88
2022-10-23T02:45:59.422Z,1.95
2022-10-23T02:48:31.934Z,3.50
2022-10-23T02:51:10.521Z,2.63
2022-10-23T02:56:47.187Z,1.83
2022-10-23T02:59:16.476Z,2.22
2022-10-23T03:01:50.964Z,2.13
2022-10-23T03:04:18.542Z,2.47
2022-10-23T03:06:45.604Z,2.50
2022-10-23T03:09:12.050Z,2.78
2022-10-23T03:11:38.534Z,2.75
2022-10-23T03:14:05.016Z,2.30
2022-10-23T03:16:31.500Z,2.63
2022-10-23T03:18:57.990Z,2.55
2022-10-23T03:21:24.537Z,1.95
2022-10-23T03:23:51.008Z,2.30
2022-10-23T03:26:17.515Z,2.55
2022-10-23T03:28:44.031Z,2.47
2022-10-23T03:31:10.635Z,2.25
2022-10-23T03:33:37.121Z,2.85
2022-10-23T03:36:03.688Z,2.38
2022-10-23T03:38:30.171Z,2.83
2022-10-23T03:40:56.668Z,2.33
2022-10-23T03:43:23.171Z,2.33
2022-10-23T03:45:50.784Z,2.47
2022-10-23T03:48:17.351Z,3.72
2022-10-23T03:50:43.834Z,2.20
2022-10-23T03:53:10.321Z,2.40
2022-10-23T03:55:36.800Z,2.50
2022-10-23T03:58:03.334Z,2.45
2022-10-23T04:00:29.864Z,3.13
2022-10-23T04:02:56.351Z,2.60
2022-10-23T04:05:22.798Z,2.83
2022-10-23T04:07:49.257Z,2.38
2022-10-23T04:10:15.717Z,2.67
2022-10-23T04:12:42.796Z,2.60
2022-10-23T04:15:09.559Z,3.03
2022-10-23T04:17:36.044Z,3.38
2022-10-23T04:20:02.563Z,3.92
2022-10-23T04:22:29.127Z,3.28
2022-10-23T04:24:55.751Z,4.15
2022-10-23T04:27:22.801Z,3.85
2022-10-23T04:29:49.395Z,4.38
2022-10-23T04:32:16.071Z,3.95
2022-10-23T04:34:42.610Z,4.72
2022-10-23T04:37:09.073Z,5.10
2022-10-23T04:39:35.578Z,4.47
2022-10-23T04:42:02.047Z,4.68
2022-10-23T04:44:28.530Z,4.63
2022-10-23T04:46:55.279Z,4.97
2022-10-23T04:49:21.803Z,5.07
2022-10-23T04:51:48.240Z,4.88
2022-10-23T04:54:14.757Z,5.10
2022-10-23T04:56:41.199Z,5.10
2022-10-23T04:59:08.274Z,5.43
2022-10-23T05:01:34.908Z,3.90
2022-10-23T05:04:01.508Z,6.90
2022-10-23T05:06:27.987Z,5.10
2022-10-23T05:08:54.454Z,4.00
2022-10-23T05:11:21.035Z,4.47
2022-10-23T05:13:47.558Z,5.03
2022-10-23T05:16:21.824Z,4.85
2022-10-23T05:18:48.915Z,4.43
2022-10-23T05:21:20.722Z,4.45
2022-10-23T05:23:47.761Z,4.82
2022-10-23T05:26:14.446Z,5.22
2022-10-23T05:28:40.952Z,4.93
2022-10-23T05:31:07.471Z,4.30
2022-10-23T05:33:34.784Z,5.05
2022-10-23T05:36:01.384Z,5.63
2022-10-23T05:38:29.364Z,5.72
2022-10-23T05:40:55.919Z,4.70
2022-10-23T05:43:22.417Z,5.55
2022-10-23T05:45:49.117Z,4.57
2022-10-23T05:48:29.741Z,4.28
2022-10-23T05:51:06.867Z,4.22
2022-10-23T05:53:34.579Z,4.22
2022-10-23T05:56:06.877Z,4.10
2022-10-23T05:58:33.809Z,3.78
2022-10-23T06:01:00.461Z,5.10
2022-10-23T06:03:27.002Z,5.18
2022-10-23T06:05:53.602Z,4.57
2022-10-23T06:08:20.158Z,4.68
2022-10-23T06:10:46.645Z,6.00
2022-10-23T06:13:13.117Z,4.35
2022-10-23T06:15:39.668Z,4.72
2022-10-23T06:18:06.222Z,5.30
2022-10-23T06:20:35.111Z,4.43
2022-10-23T06:23:01.587Z,4.15
2022-10-23T06:25:28.055Z,4.50
2022-10-23T06:27:54.514Z,4.70
2022-10-23T06:30:21.012Z,4.20
2022-10-23T06:32:47.536Z,4.47
2022-10-23T06:35:14.022Z,4.32
2022-10-23T06:37:40.513Z,4.35
2022-10-23T06:40:08.752Z,4.55
2022-10-23T06:42:35.611Z,4.32
2022-10-23T06:45:04.887Z,4.28
2022-10-23T06:47:33.652Z,4.30
2022-10-23T06:50:00.133Z,4.38
2022-10-23T06:52:45.972Z,4.60
2022-10-23T06:55:13.082Z,4.10
2022-10-23T06:57:39.562Z,4.20
2022-10-23T07:00:06.387Z,3.75
2022-10-23T07:02:32.895Z,3.38
2022-10-23T07:04:59.353Z,3.40
2022-10-23T07:07:25.845Z,3.20
2022-10-23T07:09:52.311Z,3.97
2022-10-23T07:12:18.759Z,4.82
2022-10-23T07:14:45.216Z,3.72
2022-10-23T07:17:11.724Z,3.60
2022-10-23T07:19:38.184Z,3.55
2022-10-23T07:22:04.686Z,4.50
2022-10-23T07:24:32.000Z,4.85
2022-10-23T07:26:58.491Z,3.78
2022-10-23T07:29:24.938Z,3.42
2022-10-23T07:31:51.405Z,3.95
2022-10-23T07:34:17.932Z,4.22
2022-10-23T07:36:44.393Z,3.38
2022-10-23T07:39:11.948Z,3.72
2022-10-23T07:41:38.451Z,3.47
2022-10-23T07:44:05.024Z,3.92
2022-10-23T07:46:31.513Z,4.32
2022-10-23T07:48:57.996Z,3.80
2022-10-23T07:51:24.525Z,4.03
2022-10-23T07:53:51.021Z,3.78
2022-10-23T07:56:21.012Z,4.32
2022-10-23T07:58:47.434Z,4.22
2022-10-23T08:01:18.722Z,4.70
2022-10-23T08:03:45.408Z,3.78
2022-10-23T08:06:11.868Z,3.83
2022-10-23T08:08:38.383Z,3.67
2022-10-23T08:11:05.038Z,3.83
2022-10-23T08:13:31.507Z,3.90
2022-10-23T08:15:58.740Z,4.13
2022-10-23T08:18:25.487Z,3.90
2022-10-23T08:20:52.563Z,3.65
2022-10-23T08:23:19.735Z,4.40
2022-10-23T08:25:46.525Z,4.53
2022-10-23T08:28:13.026Z,3.75
2022-10-23T08:30:39.525Z,4.88
2022-10-23T08:33:07.000Z,4.25
2022-10-23T08:35:39.796Z,3.67
2022-10-23T08:38:06.679Z,4.13
2022-10-23T08:40:34.898Z,3.55
2022-10-23T08:43:10.336Z,3.17
2022-10-23T08:45:40.515Z,3.80
2022-10-23T08:48:13.290Z,4.63
2022-10-23T08:50:45.815Z,4.47
2022-10-23T08:53:30.626Z,4.20
2022-10-23T08:56:02.261Z,4.00
2022-10-23T08:58:49.206Z,4.13
2022-10-23T09:01:18.838Z,3.85
2022-10-23T09:03:45.418Z,3.95
2022-10-23T09:06:30.730Z,3.65
2022-10-23T09:09:17.440Z,3.83
2022-10-23T09:12:07.266Z,3.78
2022-10-23T09:14:49.091Z,5.03
2022-10-23T09:17:31.622Z,5.20
2022-10-23T09:20:01.335Z,3.95
2022-10-23T09:22:28.486Z,5.32
2022-10-23T09:24:54.964Z,5.03
2022-10-23T09:27:21.612Z,4.90
2022-10-23T09:29:49.366Z,5.60
2022-10-23T09:32:15.885Z,5.38
2022-10-23T09:34:50.881Z,6.45
2022-10-23T09:37:21.441Z,4.97
2022-10-23T09:39:48.335Z,5.05
2022-10-23T09:42:22.516Z,5.68
2022-10-23T09:47:18.516Z,4.43
2022-10-23T09:49:52.539Z,4.82
2022-10-23T09:54:55.694Z,5.03
2022-10-23T09:57:24.716Z,6.25
2022-10-23T09:59:55.380Z,5.50
2022-10-23T10:02:27.388Z,5.22
2022-10-23T10:04:54.071Z,5.50
2022-10-23T10:07:21.629Z,5.30
2022-10-23T10:09:48.462Z,4.63
2022-10-23T10:12:14.899Z,5.43
2022-10-23T10:15:10.802Z,4.78
2022-10-23T10:17:42.104Z,5.68
2022-10-23T10:20:21.230Z,4.97
2022-10-23T10:22:47.636Z,4.47
2022-10-23T10:25:23.442Z,5.68
2022-10-23T10:27:49.868Z,4.38
2022-10-23T10:30:19.038Z,4.85
2022-10-23T10:32:45.471Z,6.03
2022-10-23T10:35:30.899Z,5.50
2022-10-23T10:38:16.263Z,4.63
2022-10-23T10:40:44.661Z,6.10
2022-10-23T10:43:26.182Z,4.93
2022-10-23T10:46:07.980Z,4.43
2022-10-23T10:48:34.452Z,4.85
2022-10-23T10:51:02.615Z,4.45
2022-10-23T10:53:29.047Z,4.07
2022-10-23T10:55:56.878Z,5.22
2022-10-23T10:58:32.734Z,4.60
2022-10-23T11:01:00.561Z,5.10
2022-10-23T11:03:37.474Z,4.70
2022-10-23T11:06:12.154Z,3.78
2022-10-23T11:08:50.001Z,4.22
2022-10-23T11:11:36.124Z,4.22
2022-10-23T11:14:02.940Z,6.47
2022-10-23T11:16:31.408Z,6.10
2022-10-23T11:18:57.840Z,6.32
2022-10-23T11:21:47.499Z,5.80
2022-10-23T11:24:16.789Z,7.43
2022-10-23T11:26:56.178Z,8.30
2022-10-23T11:29:28.996Z,7.45
2022-10-23T11:31:55.557Z,7.22
2022-10-23T11:34:25.137Z,7.22
2022-10-23T11:36:56.091Z,7.72
2022-10-23T11:39:26.539Z,8.75
2022-10-23T11:41:55.242Z,8.30
2022-10-23T11:44:27.813Z,8.43
2022-10-23T11:47:01.756Z,9.25
2022-10-23T11:52:01.980Z,9.48
2022-10-23T11:54:28.688Z,8.73
2022-10-23T11:56:55.135Z,9.13
2022-10-23T11:59:28.832Z,10.02
2022-10-23T12:01:56.852Z,9.30
2022-10-23T12:04:23.460Z,10.43
2022-10-23T12:06:52.679Z,11.05
2022-10-23T12:09:42.244Z,9.90
2022-10-23T12:12:08.702Z,11.50
2022-10-23T12:14:39.833Z,13.80
2022-10-23T12:17:24.714Z,14.98
2022-10-23T12:20:14.498Z,15.93
2022-10-23T12:22:59.782Z,11.50
2022-10-23T12:25:29.370Z,13.30
2022-10-23T12:28:14.511Z,14.15
2022-10-23T12:30:44.652Z,12.48
2022-10-23T12:33:32.031Z,11.50
2022-10-23T12:36:06.007Z,14.13
2022-10-23T12:41:24.297Z,11.40
2022-10-23T12:44:02.151Z,14.88
2022-10-23T12:46:30.744Z,14.88
2022-10-23T12:48:58.334Z,15.27
2022-10-23T12:51:26.487Z,14.60
2022-10-23T12:53:53.019Z,15.88
2022-10-23T12:56:19.855Z,15.40
2022-10-23T12:58:51.391Z,14.35
2022-10-23T13:01:26.006Z,14.15
2022-10-23T13:03:56.148Z,13.43
2022-10-23T13:06:22.965Z,13.45
2022-10-23T13:08:49.642Z,16.15
2022-10-23T13:11:17.946Z,18.17
2022-10-23T13:13:44.875Z,14.40
2022-10-23T13:16:15.442Z,12.57
2022-10-23T13:18:42.392Z,12.13
2022-10-23T13:21:15.983Z,13.65
2022-10-23T13:23:43.551Z,13.82
2022-10-23T13:26:45.637Z,13.95
2022-10-23T13:29:20.521Z,13.48
2022-10-23T13:31:47.440Z,12.80
2022-10-23T13:34:24.375Z,13.07
2022-10-23T13:36:53.684Z,14.40
2022-10-23T13:39:31.311Z,13.25
2022-10-23T13:42:06.342Z,12.07
2022-10-23T13:44:32.800Z,12.13
2022-10-23T13:46:59.240Z,13.98
2022-10-23T13:49:25.791Z,11.63
2022-10-23T13:51:53.317Z,13.18
2022-10-23T13:54:21.435Z,8.75
2022-10-23T13:56:48.013Z,8.18
2022-10-23T13:59:15.160Z,8.15
2022-10-23T14:01:42.328Z,7.13
2022-10-23T14:04:09.547Z,7.85
2022-10-23T14:06:37.628Z,7.50
2022-10-23T14:09:08.063Z,8.27
2022-10-23T14:11:34.591Z,8.00
2022-10-23T14:14:01.038Z,8.65
2022-10-23T14:16:27.905Z,8.20
2022-10-23T14:18:54.435Z,8.68
2022-10-23T14:21:21.899Z,9.40
2022-10-23T14:23:49.294Z,9.32
2022-10-23T14:26:17.799Z,9.93
2022-10-23T14:28:44.389Z,10.43
2022-10-23T14:31:12.001Z,8.32
2022-10-23T14:33:39.071Z,9.20
2022-10-23T14:36:06.018Z,9.77
2022-10-23T14:38:32.589Z,8.73
2022-10-23T14:40:59.176Z,9.75
2022-10-23T14:43:25.907Z,9.82
2022-10-23T14:45:52.739Z,10.55
2022-10-23T14:48:19.478Z,10.07
2022-10-23T14:50:47.508Z,10.10
2022-10-23T14:53:14.197Z,9.38
2022-10-23T14:55:40.664Z,8.82
2022-10-23T14:58:07.277Z,9.43
2022-10-23T15:00:33.771Z,8.40
2022-10-23T15:03:00.392Z,9.38
2022-10-23T15:05:26.938Z,8.93
2022-10-23T15:07:54.848Z,8.95
2022-10-23T15:10:21.382Z,9.00
2022-10-23T15:12:48.671Z,10.10
2022-10-23T15:15:15.214Z,9.52
2022-10-23T15:17:42.397Z,9.15
2022-10-23T15:20:09.156Z,9.77
2022-10-23T15:22:35.664Z,9.38
2022-10-23T15:25:02.163Z,9.35
2022-10-23T15:27:28.866Z,10.50
2022-10-23T15:29:55.345Z,10.02
2022-10-23T15:32:21.843Z,10.75
2022-10-23T15:34:49.828Z,9.77
2022-10-23T15:37:16.529Z,9.43
2022-10-23T15:39:43.187Z,10.05
2022-10-23T15:42:10.137Z,9.55
2022-10-23T15:44:36.871Z,13.40
2022-10-23T15:47:03.519Z,14.35
2022-10-23T15:49:30.858Z,13.50
2022-10-23T15:51:57.705Z,10.63
2022-10-23T15:54:27.023Z,14.00
2022-10-23T15:56:55.948Z,6.40
2022-10-23T15:59:23.505Z,13.40
2022-10-23T16:01:50.478Z,9.27
2022-10-23T16:04:17.259Z,9.93
2022-10-23T16:06:44.377Z,11.07
2022-10-23T16:09:10.892Z,8.65
2022-10-23T16:11:38.202Z,12.07
2022-10-23T16:14:05.458Z,10.02
2022-10-23T16:16:32.680Z,5.70
2022-10-23T16:19:00.523Z,6.93
2022-10-23T16:21:28.420Z,8.55
2022-10-23T16:23:55.705Z,9.45
2022-10-23T16:26:22.697Z,8.60
2022-10-23T16:28:52.948Z,14.70
2022-10-23T16:31:21.154Z,5.05
2022-10-23T16:33:48.511Z,7.40
2022-10-23T16:36:15.391Z,12.85
2022-10-23T16:38:41.854Z,7.30
2022-10-23T16:41:08.335Z,5.97
2022-10-23T16:43:34.936Z,6.00
2022-10-23T16:46:02.250Z,6.47
2022-10-23T16:48:29.399Z,8.60
2022-10-23T16:50:55.871Z,6.85
2022-10-23T16:53:23.198Z,8.35
2022-10-23T16:55:49.706Z,6.35
2022-10-23T16:58:16.247Z,9.10
2022-10-23T17:00:42.719Z,11.30
2022-10-23T17:03:10.887Z,8.30
2022-10-23T17:05:37.336Z,10.10
2022-10-23T17:08:03.827Z,11.48
2022-10-23T17:10:30.331Z,8.20
2022-10-23T17:12:56.837Z,7.82
2022-10-23T17:15:24.295Z,9.45
2022-10-23T17:17:51.112Z,8.30
2022-10-23T17:20:17.909Z,5.95
2022-10-23T17:22:44.670Z,7.32
2022-10-23T17:25:11.585Z,13.20
2022-10-23T17:27:38.467Z,8.52
2022-10-23T17:30:09.241Z,10.15
2022-10-23T17:32:38.272Z,7.57
2022-10-23T17:35:05.620Z,8.70
2022-10-23T17:37:32.272Z,9.68
2022-10-23T17:40:01.100Z,19.80
2022-10-23T17:42:28.465Z,11.88
2022-10-23T17:44:55.036Z,7.15
2022-10-23T17:47:21.569Z,7.57
2022-10-23T17:49:48.068Z,7.10
2022-10-23T17:52:15.170Z,11.15
2022-10-23T17:54:42.323Z,9.85
2022-10-23T17:57:08.759Z,12.13
2022-10-23T17:59:35.234Z,6.20
2022-10-23T18:02:01.910Z,31.55
2022-10-23T18:04:28.447Z,16.05
2022-10-23T18:06:54.948Z,17.92
2022-10-23T18:09:22.186Z,20.13
2022-10-23T18:11:49.131Z,94.05
2022-10-23T18:14:16.452Z,92.95
2022-10-23T18:16:42.960Z,99.55
2022-10-23T18:19:10.543Z,147.68
2022-10-23T18:21:38.062Z,75.35
2022-10-23T18:24:04.727Z,54.75
2022-10-23T18:26:32.291Z,38.03
2022-10-23T18:28:59.331Z,25.45
2022-10-23T18:31:27.158Z,47.03
2022-10-23T18:33:57.263Z,27.95
2022-10-23T18:36:25.047Z,29.33
2022-10-23T18:38:51.628Z,21.10
2022-10-23T18:41:18.853Z,44.03
2022-10-23T18:43:45.891Z,29.52
2022-10-23T18:46:13.141Z,26.80
2022-10-23T18:48:39.991Z,24.83
2022-10-23T18:51:15.538Z,23.52
2022-10-23T18:53:42.514Z,22.08
2022-10-23T18:56:08.985Z,24.35
2022-10-23T18:58:35.525Z,31.90
2022-10-23T19:01:02.100Z,21.02
2022-10-23T19:03:28.619Z,21.25
2022-10-23T19:05:55.112Z,16.15
2022-10-23T19:08:21.973Z,16.85
2022-10-23T19:10:49.710Z,13.23
2022-10-23T19:13:17.156Z,12.25
2022-10-23T19:15:44.260Z,12.93
2022-10-23T19:18:11.052Z,11.80
2022-10-23T19:20:37.782Z,8.50
2022-10-23T19:23:05.887Z,6.75
2022-10-23T19:25:33.168Z,5.97
2022-10-23T19:28:00.340Z,8.77
2022-10-23T19:30:27.141Z,10.52
2022-10-23T19:32:53.751Z,12.13
2022-10-23T19:35:21.402Z,9.77
2022-10-23T19:37:48.267Z,82.72
2022-10-23T19:40:15.307Z,43.05
2022-10-23T19:42:42.428Z,39.95
2022-10-23T19:45:10.608Z,33.50
2022-10-23T19:47:37.244Z,15.98
2022-10-23T19:50:04.884Z,20.50
2022-10-23T19:52:31.368Z,14.32
2022-10-23T19:54:57.876Z,21.58
2022-10-23T19:57:24.407Z,21.60
2022-10-23T19:59:51.525Z,10.23
2022-10-23T20:02:18.868Z,12.18
2022-10-23T20:04:45.538Z,18.63
2022-10-23T20:07:12.220Z,10.85
2022-10-23T20:09:38.680Z,15.18
2022-10-23T20:12:05.206Z,17.10
2022-10-23T20:14:31.715Z,25.70
2022-10-23T20:16:59.790Z,17.52
2022-10-23T20:19:26.345Z,17.63
2022-10-23T20:21:53.098Z,15.07
2022-10-23T20:24:24.184Z,15.43
2022-10-23T20:26:52.283Z,14.57
2022-10-23T20:29:19.146Z,15.75
2022-10-23T20:31:45.677Z,14.23
2022-10-23T20:34:12.235Z,17.02
2022-10-23T20:36:45.461Z,16.80
2022-10-23T20:39:14.942Z,14.38
2022-10-23T20:41:41.883Z,12.50
2022-10-23T20:44:09.491Z,8.32
2022-10-23T20:46:36.085Z,11.45
2022-10-23T20:49:02.662Z,14.50
2022-10-23T20:51:29.162Z,10.68
2022-10-23T20:53:55.717Z,8.40
2022-10-23T20:56:23.855Z,7.25
2022-10-23T20:58:50.733Z,11.50
2022-10-23T21:01:18.296Z,9.23
2022-10-23T21:03:49.423Z,8.95
2022-10-23T21:06:16.830Z,6.95
2022-10-23T21:08:43.629Z,10.18
2022-10-23T21:11:14.916Z,7.50
2022-10-23T21:13:42.473Z,7.97
2022-10-23T21:16:28.838Z,10.80
2022-10-23T21:18:56.375Z,8.00
2022-10-23T21:21:23.446Z,5.50
2022-10-23T21:23:51.163Z,12.13
2022-10-23T21:26:21.948Z,6.35
2022-10-23T21:28:56.040Z,7.22
2022-10-23T21:31:33.748Z,5.30
2022-10-23T21:34:00.344Z,10.68
2022-10-23T21:36:29.140Z,8.90
2022-10-23T21:38:57.647Z,5.07
2022-10-23T21:41:25.570Z,6.80
2022-10-23T21:43:52.942Z,10.13
2022-10-23T21:46:22.700Z,5.85
2022-10-23T21:48:49.647Z,4.85
2022-10-23T21:51:27.828Z,9.68
2022-10-23T21:53:54.418Z,4.97
2022-10-23T21:56:29.926Z,5.47
2022-10-23T21:58:57.498Z,4.85
2022-10-23T22:01:24.389Z,5.13
2022-10-23T22:03:51.371Z,3.88
2022-10-23T22:06:20.452Z,4.40
2022-10-23T22:08:47.907Z,3.58
2022-10-23T22:11:14.486Z,2.42
2022-10-23T22:13:41.943Z,4.45
2022-10-23T22:16:09.289Z,3.33
2022-10-23T22:18:36.892Z,5.43
2022-10-23T22:21:05.112Z,5.63
2022-10-23T22:23:31.715Z,2.10
2022-10-23T22:25:58.358Z,0.90
2022-10-23T22:28:25.014Z,1.67
2022-10-23T22:30:51.523Z,7.18
2022-10-23T22:33:18.133Z,2.13
2022-10-23T22:35:44.669Z,1.92
2022-10-23T22:38:11.150Z,2.55
2022-10-23T22:40:38.884Z,2.00
2022-10-23T22:43:06.700Z,2.88
2022-10-23T22:45:33.248Z,2.10
2022-10-23T22:47:59.785Z,2.33
2022-10-23T22:50:26.477Z,2.20
2022-10-23T22:52:52.951Z,1.90
2022-10-23T22:55:19.476Z,3.30
2022-10-23T22:57:46.099Z,3.05
2022-10-23T23:00:13.037Z,1.85
2022-10-23T23:02:39.479Z,1.50
2022-10-23T23:05:06.271Z,1.90
2022-10-23T23:07:32.721Z,2.65
2022-10-23T23:09:59.255Z,1.95
2022-10-23T23:12:25.698Z,2.58
2022-10-23T23:14:52.249Z,1.77
2022-10-23T23:17:18.930Z,2.75
2022-10-23T23:19:45.388Z,1.83
2022-10-23T23:22:11.900Z,2.13
2022-10-23T23:24:38.415Z,3.10
2022-10-23T23:27:04.960Z,2.05
2022-10-23T23:29:31.873Z,1.33
2022-10-23T23:31:58.470Z,2.20
2022-10-23T23:34:24.934Z,1.60
2022-10-23T23:36:51.433Z,1.70
2022-10-23T23:39:17.947Z,2.17
2022-10-23T23:41:44.423Z,1.67
2022-10-23T23:44:11.242Z,1.25
2022-10-23T23:46:37.845Z,1.40
2022-10-23T23:49:04.352Z,1.73
2022-10-23T23:51:30.904Z,3.50
2022-10-23T23:53:57.461Z,7.72
2022-10-23T23:56:23.978Z,1.88
2022-10-23T23:58:50.568Z,3.33
